Thunder radar more information blitzortung!


Radar de pluja more information rain snow radar


Visita la nostra xarxa de llocs de meteo:

Template documentation
and downloads

And another site



No particular awareness of the weather is required.    There are no Weather-warnings

Pagina Historial Weather Underground text

Diari Resum Abril 17, 2016 Unitats:  Mètric    Imperial   Tant
« Previous Dia
SegĂźent Dia »
Diari Setmana Mensual Anual Personalitzada
  Maxima: Minima: Media:
Temperatura: 24.2 °C 12.2 °C 19.9 °C
Punt de rosada: 9.4 °C 0.6 °C 5.4 °C
Humitat: 66 % 27 % 40 %
Wind Speed: 22.2 km/h 0.0 km/h 8 km/h
RĂ fegues de vent: 22.2 km/h - -
Vent:- - SW
Pression baro: 1018.8 hPa 1010.0 hPa -
Precipitacions: 0.0 mm    
Historical Graphs
 
 
Dades de taula per Abril 17, 2016
Temps Temperatura Punt de rosada Pression baro Vent Wind Speed RĂ fegues de vent Humitat Rainfall Rate (Hourly)
00:00 16.3 °C 7.5 °C 1010.7 hPa West 3.9 km/h 4.7 km/h 56 % 0.0 mm
00:05 16.3 °C 7.5 °C 1010.7 hPa SW 5.6 km/h 5.6 km/h 56 % 0.0 mm
00:10 16.2 °C 7.4 °C 1010.7 hPa SW 5.6 km/h 5.6 km/h 56 % 0.0 mm
00:15 16.2 °C 7.4 °C 1011.7 hPa SW 4.2 km/h 4.2 km/h 56 % 0.0 mm
00:20 16.2 °C 7.4 °C 1011.7 hPa WSW 5.0 km/h   56 % 0.0 mm
00:30 16.2 °C 7.4 °C 1011.7 hPa WSW 5.6 km/h 5.6 km/h 56 % 0.0 mm
00:40 14.3 °C 7.8 °C 1010.7 hPa SW 4.8 km/h 4.8 km/h 65 % 0.0 mm
00:50 14.4 °C 7.9 °C 1010.0 hPa WSW 3.2 km/h 4.8 km/h 65 % 0.0 mm
01:00 14.4 °C 7.9 °C 1010.7 hPa WSW 4.8 km/h 4.8 km/h 65 % 0.0 mm
01:10 14.2 °C 7.9 °C 1010.7 hPa WSW 3.2 km/h 6.4 km/h 66 % 0.0 mm
01:20 14.3 °C 7.8 °C 1010.7 hPa WSW 3.2 km/h 6.4 km/h 65 % 0.0 mm
01:30 14.2 °C 7.7 °C 1011.7 hPa WSW 3.2 km/h 4.8 km/h 65 % 0.0 mm
01:40 13.9 °C 7.4 °C 1011.7 hPa WSW 3.2 km/h 3.2 km/h 65 % 0.0 mm
01:50 13.7 °C 7.4 °C 1011.7 hPa SW 3.2 km/h 4.8 km/h 66 % 0.0 mm
02:10 14.0 °C 7.7 °C 1011.7 hPa WSW 3.2 km/h 6.4 km/h 66 % 0.0 mm
02:20 14.0 °C 7.7 °C 1012.8 hPa WSW 4.8 km/h 4.8 km/h 66 % 0.0 mm
02:30 14.0 °C 7.7 °C 1011.7 hPa SW 4.8 km/h 8.0 km/h 66 % 0.0 mm
02:40 14.1 °C 7.8 °C 1011.7 hPa SW 4.8 km/h 9.7 km/h 66 % 0.0 mm
02:50 14.1 °C 7.8 °C 1011.7 hPa SW 4.8 km/h 6.4 km/h 66 % 0.0 mm
03:00 14.3 °C 7.8 °C 1011.7 hPa SW 4.8 km/h 6.4 km/h 65 % 0.0 mm
03:10 14.3 °C 7.6 °C 1011.7 hPa SW 3.2 km/h 6.4 km/h 64 % 0.0 mm
03:20 14.3 °C 7.6 °C 1011.7 hPa SW 4.8 km/h 6.4 km/h 64 % 0.0 mm
03:30 14.5 °C 7.8 °C 1011.7 hPa WSW 4.8 km/h 6.4 km/h 64 % 0.0 mm
03:50 15.5 °C 8.5 °C 1012.8 hPa SW 4.8 km/h 8.0 km/h 63 % 0.0 mm
04:00 16.0 °C 8.5 °C 1012.8 hPa SW 8.0 km/h 8.0 km/h 61 % 0.0 mm
04:10 16.4 °C 8.4 °C 1012.8 hPa WSW 4.8 km/h 8.0 km/h 59 % 0.0 mm
04:30 17.3 °C 8.2 °C 1012.8 hPa WSW 4.8 km/h 8.0 km/h 55 % 0.0 mm
04:40 17.6 °C 8.2 °C 1012.8 hPa WSW 3.2 km/h 8.0 km/h 54 % 0.0 mm
04:50 17.7 °C 7.7 °C 1012.8 hPa WSW 4.8 km/h 11.3 km/h 52 % 0.0 mm
05:00 18.4 °C 8.4 °C 1012.8 hPa West 4.8 km/h 6.4 km/h 52 % 0.0 mm
05:10 18.8 °C 8.7 °C 1012.8 hPa WSW 4.8 km/h 8.0 km/h 52 % 0.0 mm
05:20 19.0 °C 8.3 °C 1012.8 hPa WSW 4.8 km/h 14.5 km/h 50 % 0.0 mm
05:30 18.7 °C 8.3 °C 1012.8 hPa WSW 8.0 km/h 8.0 km/h 51 % 0.0 mm
05:40 19.0 °C 8.3 °C 1012.8 hPa West 3.2 km/h 12.9 km/h 50 % 0.0 mm
05:50 19.5 °C 8.5 °C 1013.8 hPa WSW 4.8 km/h 12.9 km/h 49 % 0.0 mm
06:00 19.8 °C 8.8 °C 1013.8 hPa WSW 9.7 km/h 16.1 km/h 49 % 0.0 mm
06:10 20.1 °C 8.7 °C 1013.8 hPa WSW 9.7 km/h 11.3 km/h 48 % 0.0 mm
06:20 20.5 °C 9.1 °C 1013.8 hPa WSW 4.8 km/h 14.5 km/h 48 % 0.0 mm
06:30 20.7 °C 9.0 °C 1013.8 hPa West 4.8 km/h 9.7 km/h 47 % 0.0 mm
06:40 20.7 °C 9.0 °C 1013.8 hPa West 4.8 km/h 12.9 km/h 47 % 0.0 mm
11:45 20.7 °C 9.0 °C 1013.8 hPa WNW 7.9 km/h 7.9 km/h 47 % 0.0 mm
11:50 21.2 °C 9.1 °C 1013.8 hPa South 9.3 km/h 9.3 km/h 46 % 0.0 mm
11:55 21.7 °C 9.2 °C 1013.8 hPa SW 11.1 km/h 11.1 km/h 45 % 0.0 mm
12:00 21.9 °C 9.4 °C 1013.8 hPa WSW 11.1 km/h 11.1 km/h 45 % 0.0 mm
12:05 22.1 °C 9.3 °C 1013.8 hPa North 7.4 km/h 7.4 km/h 44 % 0.0 mm
12:10 21.8 °C 8.7 °C 1013.8 hPa WSW 11.1 km/h 11.1 km/h 43 % 0.0 mm
12:15 21.9 °C 8.7 °C 1013.8 hPa NNW 15.8 km/h 15.8 km/h 43 % 0.0 mm
12:20 21.9 °C 8.7 °C 1013.8 hPa SW 10.0 km/h 10.0 km/h 43 % 0.0 mm
12:25 21.8 °C 8.7 °C 1013.8 hPa SW 9.3 km/h 9.3 km/h 43 % 0.0 mm
12:30 21.7 °C 8.6 °C 1013.8 hPa SW 20.9 km/h 20.9 km/h 43 % 0.0 mm
12:35 21.5 °C 8.4 °C 1013.8 hPa WSW 13.0 km/h 13.0 km/h 43 % 0.0 mm
12:40 21.4 °C 8.3 °C 1013.8 hPa WSW 11.1 km/h 11.1 km/h 43 % 0.0 mm
12:45 21.9 °C 8.7 °C 1013.8 hPa NW 7.4 km/h 7.4 km/h 43 % 0.0 mm
12:50 22.1 °C 8.6 °C 1013.8 hPa ENE 7.4 km/h 7.4 km/h 42 % 0.0 mm
12:55 22.1 °C 8.6 °C 1013.8 hPa West 16.7 km/h 16.7 km/h 42 % 0.0 mm
13:00 22.1 °C 8.2 °C 1013.8 hPa WSW 13.0 km/h 13.0 km/h 41 % 0.0 mm
13:05 22.6 °C 9.1 °C 1013.8 hPa South 7.4 km/h 7.4 km/h 42 % 0.0 mm
13:10 22.8 °C 8.8 °C 1013.8 hPa East 5.6 km/h 5.6 km/h 41 % 0.0 mm
13:15 22.7 °C 8.4 °C 1013.8 hPa West 16.7 km/h 16.7 km/h 40 % 0.0 mm
13:20 22.6 °C 8.3 °C 1013.8 hPa SW 7.4 km/h 7.4 km/h 40 % 0.0 mm
13:25 23.1 °C 8.8 °C 1013.8 hPa SW 9.3 km/h 9.3 km/h 40 % 0.0 mm
13:30 23.1 °C 8.4 °C 1012.8 hPa NNW 9.3 km/h 9.3 km/h 39 % 0.0 mm
13:35 22.8 °C 8.5 °C 1012.8 hPa West 9.3 km/h 9.3 km/h 40 % 0.0 mm
13:40 23.2 °C 8.5 °C 1012.8 hPa WNW 14.8 km/h 14.8 km/h 39 % 0.0 mm
13:45 23.5 °C 8.7 °C 1012.8 hPa West 11.1 km/h 11.1 km/h 39 % 0.0 mm
13:50 23.6 °C 8.4 °C 1012.8 hPa WSW 7.4 km/h 7.4 km/h 38 % 0.0 mm
13:55 23.1 °C 7.6 °C 1012.8 hPa South 14.8 km/h 14.8 km/h 37 % 0.0 mm
14:00 23.0 °C 7.5 °C 1012.8 hPa WNW 11.1 km/h 11.1 km/h 37 % 0.0 mm
14:05 23.3 °C 7.8 °C 1012.8 hPa WSW 5.6 km/h 6.4 km/h 37 % 0.0 mm
14:10 23.1 °C 7.2 °C 1012.8 hPa WNW 9.3 km/h 9.3 km/h 36 % 0.0 mm
14:15 23.3 °C 7.4 °C 1013.8 hPa WSW 13.0 km/h 13.0 km/h 36 % 0.0 mm
14:20 23.4 °C 7.5 °C 1013.8 hPa WSW 13.0 km/h 13.0 km/h 36 % 0.0 mm
14:30 23.6 °C 6.8 °C 1012.8 hPa West 16.7 km/h 16.7 km/h 34 % 0.0 mm
14:35 23.5 °C 6.3 °C 1012.8 hPa WSW 14.8 km/h 14.8 km/h 33 % 0.0 mm
14:40 23.7 °C 6.4 °C 1012.8 hPa ENE 9.3 km/h 9.3 km/h 33 % 0.0 mm
14:45 23.8 °C 6.6 °C 1013.8 hPa WSW 13.0 km/h 13.0 km/h 33 % 0.0 mm
14:50 23.7 °C 6.0 °C 1013.8 hPa WSW 11.1 km/h 11.1 km/h 32 % 0.0 mm
14:55 23.8 °C 6.1 °C 1013.8 hPa WSW 10.0 km/h 10.0 km/h 32 % 0.0 mm
15:00 23.6 °C 5.5 °C 1012.8 hPa West 13.0 km/h 13.0 km/h 31 % 0.0 mm
15:05 23.7 °C 5.6 °C 1012.8 hPa South 14.8 km/h 14.8 km/h 31 % 0.0 mm
15:10 23.6 °C 5.5 °C 1012.8 hPa WNW 9.3 km/h 9.3 km/h 31 % 0.0 mm
15:15 23.6 °C 5.5 °C 1012.8 hPa South 9.3 km/h 9.3 km/h 31 % 0.0 mm
15:20 23.5 °C 5.4 °C 1012.8 hPa ESE 9.3 km/h 9.3 km/h 31 % 0.0 mm
15:25 23.7 °C 5.6 °C 1012.8 hPa SSW 12.2 km/h 12.2 km/h 31 % 0.0 mm
15:30 23.6 °C 5.0 °C 1012.8 hPa WNW 14.8 km/h 14.8 km/h 30 % 0.0 mm
15:35 23.6 °C 5.0 °C 1012.8 hPa West 16.7 km/h 16.7 km/h 30 % 0.0 mm
15:40 23.5 °C 4.9 °C 1012.8 hPa SSW 22.2 km/h 22.2 km/h 30 % 0.0 mm
15:45 23.8 °C 5.7 °C 1012.8 hPa West 5.8 km/h 5.8 km/h 31 % 0.0 mm
15:50 23.4 °C 5.3 °C 1012.8 hPa ENE 9.3 km/h 9.3 km/h 31 % 0.0 mm
15:55 23.7 °C 5.1 °C 1012.8 hPa WSW 18.5 km/h 18.5 km/h 30 % 0.0 mm
16:00 23.7 °C 4.6 °C 1012.8 hPa SW 13.0 km/h 13.0 km/h 29 % 0.0 mm
16:05 23.8 °C 5.2 °C 1012.8 hPa NNW 9.3 km/h 9.3 km/h 30 % 0.0 mm
16:15 24.2 °C 5.5 °C 1012.8 hPa WSW 13.0 km/h 13.0 km/h 30 % 0.0 mm
16:20 23.4 °C 4.8 °C 1012.8 hPa NNE 9.3 km/h 9.3 km/h 30 % 0.0 mm
16:25 23.2 °C 4.7 °C 1012.8 hPa WNW 9.7 km/h 9.7 km/h 30 % 0.0 mm
16:30 23.0 °C 4.0 °C 1012.8 hPa WSW 14.8 km/h 14.8 km/h 29 % 0.0 mm
16:35 22.9 °C 4.4 °C 1012.8 hPa NW 13.0 km/h 13.0 km/h 30 % 0.0 mm
16:40 22.6 °C 4.1 °C 1012.8 hPa WSW 11.1 km/h 11.1 km/h 30 % 0.0 mm
16:45 22.7 °C 4.2 °C 1012.8 hPa WSW 6.1 km/h 6.1 km/h 30 % 0.0 mm
16:50 22.5 °C 4.1 °C 1012.8 hPa West 7.4 km/h 7.4 km/h 30 % 0.0 mm
16:55 22.1 °C 3.7 °C 1012.8 hPa West 11.1 km/h 11.1 km/h 30 % 0.0 mm
17:00 22.6 °C 4.1 °C 1012.8 hPa WSW 14.8 km/h 14.8 km/h 30 % 0.0 mm
17:05 23.5 °C 4.4 °C 1012.8 hPa WSW 9.3 km/h 9.3 km/h 29 % 0.0 mm
17:15 23.6 °C 4.5 °C 1012.8 hPa NNE 7.4 km/h 7.4 km/h 29 % 0.0 mm
17:20 23.8 °C 4.7 °C 1012.8 hPa SW 13.0 km/h 13.0 km/h 29 % 0.0 mm
17:25 23.7 °C 4.1 °C 1012.8 hPa NW 13.0 km/h 13.0 km/h 28 % 0.0 mm
17:30 23.9 °C 4.3 °C 1012.8 hPa WNW 12.6 km/h 12.6 km/h 28 % 0.0 mm
17:35 23.6 °C 4.0 °C 1012.8 hPa West 11.1 km/h 11.1 km/h 28 % 0.0 mm
17:40 23.7 °C 4.1 °C 1012.8 hPa WSW 9.7 km/h 12.9 km/h 28 % 0.0 mm
17:45 23.7 °C 4.1 °C 1012.8 hPa WSW 14.8 km/h 14.8 km/h 28 % 0.0 mm
17:50 23.7 °C 4.1 °C 1012.8 hPa NNW 9.3 km/h 9.3 km/h 28 % 0.0 mm
17:55 23.5 °C 3.9 °C 1012.8 hPa West 13.0 km/h 13.0 km/h 28 % 0.0 mm
18:05 23.6 °C 4.0 °C 1012.8 hPa West 3.2 km/h 14.5 km/h 28 % 0.0 mm
18:10 23.3 °C 3.2 °C 1012.8 hPa NW 13.0 km/h 13.0 km/h 27 % 0.0 mm
18:15 23.2 °C 3.2 °C 1012.8 hPa West 8.7 km/h 8.7 km/h 27 % 0.0 mm
18:20 23.1 °C 3.1 °C 1012.8 hPa WSW 13.0 km/h 13.0 km/h 27 % 0.0 mm
18:25 22.9 °C 3.4 °C 1012.8 hPa WSW 9.3 km/h 9.3 km/h 28 % 0.0 mm
18:30 23.1 °C 3.1 °C 1012.8 hPa West 7.6 km/h 7.6 km/h 27 % 0.0 mm
18:35 23.1 °C 3.1 °C 1012.8 hPa WSW 9.3 km/h 9.3 km/h 27 % 0.0 mm
18:45 22.8 °C 3.3 °C 1013.8 hPa WSW 9.3 km/h 9.3 km/h 28 % 0.0 mm
18:50 22.8 °C 3.3 °C 1013.8 hPa WNW 7.4 km/h 7.4 km/h 28 % 0.0 mm
18:55 22.8 °C 3.3 °C 1013.8 hPa WSW 11.1 km/h 11.1 km/h 28 % 0.0 mm
19:00 22.7 °C 3.2 °C 1013.8 hPa WSW 7.4 km/h 7.4 km/h 28 % 0.0 mm
19:05 22.7 °C 3.2 °C 1013.8 hPa SW 7.4 km/h 7.4 km/h 28 % 0.0 mm
19:10 22.5 °C 3.1 °C 1013.8 hPa WSW 6.9 km/h 6.9 km/h 28 % 0.0 mm
19:15 22.2 °C 2.8 °C 1013.8 hPa WNW 9.3 km/h 9.3 km/h 28 % 0.0 mm
19:20 21.8 °C 2.4 °C 1013.8 hPa NNW 13.0 km/h 13.0 km/h 28 % 0.0 mm
19:25 21.6 °C 2.3 °C 1013.8 hPa WSW 9.0 km/h 9.0 km/h 28 % 0.0 mm
19:30 21.5 °C 2.2 °C 1013.8 hPa WSW 3.2 km/h 11.3 km/h 28 % 0.0 mm
19:35 21.4 °C 2.1 °C 1013.8 hPa SW 12.2 km/h 12.2 km/h 28 % 0.0 mm
19:40 21.2 °C 1.9 °C 1013.8 hPa WSW 14.8 km/h 14.8 km/h 28 % 0.0 mm
19:45 21.1 °C 1.8 °C 1013.8 hPa WSW 9.7 km/h 14.5 km/h 28 % 0.0 mm
19:50 21.0 °C 1.8 °C 1013.8 hPa WSW 9.7 km/h 14.5 km/h 28 % 0.0 mm
19:55 20.9 °C 2.2 °C 1013.8 hPa West 4.8 km/h 14.5 km/h 29 % 0.0 mm
20:00 20.8 °C 1.6 °C 1013.8 hPa NW 4.8 km/h 4.8 km/h 28 % 0.0 mm
20:05 20.7 °C 1.5 °C 1013.8 hPa NW 4.8 km/h 11.3 km/h 28 % 0.0 mm
20:10 20.5 °C 1.3 °C 1013.8 hPa WNW 9.3 km/h 9.3 km/h 28 % 0.0 mm
20:15 20.4 °C 1.8 °C 1013.8 hPa West 8.0 km/h 9.7 km/h 29 % 0.0 mm
20:20 20.2 °C 1.6 °C 1013.8 hPa SW 4.2 km/h 4.2 km/h 29 % 0.0 mm
20:25 20.1 °C 1.5 °C 1013.8 hPa SW 3.2 km/h 4.8 km/h 29 % 0.0 mm
20:30 19.9 °C 1.8 °C 1014.4 hPa WSW 3.2 km/h 6.4 km/h 30 % 0.0 mm
20:35 19.7 °C 1.6 °C 1014.8 hPa WSW 5.6 km/h 5.6 km/h 30 % 0.0 mm
20:40 19.6 °C 1.5 °C 1014.8 hPa WSW 3.2 km/h 6.4 km/h 30 % 0.0 mm
20:45 19.4 °C 1.4 °C 1014.8 hPa WSW 3.2 km/h 6.4 km/h 30 % 0.0 mm
20:50 19.3 °C 1.3 °C 1014.8 hPa WSW 3.2 km/h 8.0 km/h 30 % 0.0 mm
20:55 19.2 °C 1.2 °C 1014.8 hPa WSW 3.9 km/h 3.9 km/h 30 % 0.0 mm
21:00 19.1 °C 1.1 °C 1014.8 hPa SW 3.9 km/h 3.9 km/h 30 % 0.0 mm
21:05 19.0 °C 1.0 °C 1014.8 hPa WSW 5.6 km/h 5.6 km/h 30 % 0.0 mm
21:10 18.9 °C 0.9 °C 1014.8 hPa Calm   8.0 km/h 30 % 0.0 mm
21:15 18.7 °C 0.8 °C 1015.8 hPa SW 3.7 km/h 3.7 km/h 30 % 0.0 mm
21:20 18.5 °C 1.1 °C 1015.8 hPa Calm   3.2 km/h 31 % 0.0 mm
21:25 18.2 °C 0.8 °C 1015.8 hPa Calm   3.2 km/h 31 % 0.0 mm
21:30 17.9 °C 0.6 °C 1015.8 hPa WSW 3.2 km/h 4.8 km/h 31 % 0.0 mm
21:35 17.8 °C 0.9 °C 1015.8 hPa WSW 3.2 km/h 4.8 km/h 32 % 0.0 mm
21:40 17.7 °C 0.7 °C 1015.8 hPa WSW 1.6 km/h 1.6 km/h 32 % 0.0 mm
21:45 17.6 °C 0.7 °C 1015.8 hPa SW 3.2 km/h 3.2 km/h 32 % 0.0 mm
21:50 17.5 °C 0.6 °C 1015.8 hPa SW 1.6 km/h 3.2 km/h 32 % 0.0 mm
21:55 17.3 °C 0.8 °C 1015.8 hPa WSW 1.9 km/h   33 % 0.0 mm
22:00 17.1 °C 0.7 °C 1016.8 hPa Calm     33 % 0.0 mm
22:05 17.0 °C 1.0 °C 1016.8 hPa WSW 1.9 km/h 1.9 km/h 34 % 0.0 mm
22:10 17.0 °C 1.4 °C 1016.8 hPa Calm     35 % 0.0 mm
22:15 16.9 °C 1.3 °C 1016.8 hPa ENE 4.8 km/h 9.7 km/h 35 % 0.0 mm
22:20 16.3 °C 1.6 °C 1016.8 hPa ENE 4.8 km/h 12.9 km/h 37 % 0.0 mm
22:25 16.0 °C 2.7 °C 1016.8 hPa ENE 9.7 km/h 12.9 km/h 41 % 0.0 mm
22:30 12.2 °C 6.1 °C 1018.8 hPa ENE 1.6 km/h 3.2 km/h 66 % 0.0 mm
22:35 15.6 °C 4.3 °C 1017.8 hPa ENE 9.7 km/h 12.9 km/h 47 % 0.0 mm
22:40 15.5 °C 4.5 °C 1017.8 hPa East 14.8 km/h 14.8 km/h 48 % 0.0 mm
22:45 15.4 °C 4.7 °C 1017.8 hPa ENE 7.4 km/h 7.4 km/h 49 % 0.0 mm
22:50 15.3 °C 4.9 °C 1017.8 hPa ESE 9.3 km/h 9.3 km/h 50 % 0.0 mm
22:55 15.2 °C 4.8 °C 1017.8 hPa ESE 9.3 km/h 9.3 km/h 50 % 0.0 mm
23:00 15.1 °C 5.1 °C 1017.8 hPa ENE 8.7 km/h 8.7 km/h 51 % 0.0 mm
23:05 15.0 °C 4.9 °C 1017.8 hPa ENE 9.3 km/h 9.3 km/h 51 % 0.0 mm
23:10 15.0 °C 4.9 °C 1017.8 hPa ENE 9.0 km/h 9.0 km/h 51 % 0.0 mm
23:15 14.9 °C 4.8 °C 1017.8 hPa East 9.3 km/h 9.3 km/h 51 % 0.0 mm
23:25 14.8 °C 5.1 °C 1017.8 hPa ENE 7.4 km/h 7.4 km/h 52 % 0.0 mm
23:30 14.8 °C 5.0 °C 1017.8 hPa ENE 3.2 km/h 8.0 km/h 52 % 0.0 mm
23:35 14.7 °C 4.9 °C 1017.8 hPa ENE 5.8 km/h 5.8 km/h 52 % 0.0 mm
23:40 14.6 °C 4.8 °C 1017.8 hPa East 5.6 km/h 5.6 km/h 52 % 0.0 mm
23:45 14.5 °C 5.0 °C 1017.8 hPa NNE 5.6 km/h 5.6 km/h 53 % 0.0 mm
23:50 14.4 °C 4.9 °C 1017.8 hPa NE 5.6 km/h 5.6 km/h 53 % 0.0 mm
23:55 14.4 °C 5.2 °C 1017.8 hPa ENE 7.4 km/h 7.4 km/h 54 % 0.0 mm
Meteo Sesrovires
Elogis d' Weather Underground - 3.5 mb

Guio original per  Jim McMurry - jmcmurry@mwt.net Adaptat per a la plantilla per  Wim van der Kuil - Leuven-Template.eu

Trobareu la nostra informacio del temps tambe a:

Weather Underground

AWEKAS